sensor_id;sensor_type;location;lat;lon;timestamp;temperature;humidity
32753;DHT22;19121;52.428;10.816;2024-01-15T00:01:07;18.30;39.70
32753;DHT22;19121;52.428;10.816;2024-01-15T00:03:33;18.30;39.70
32753;DHT22;19121;52.428;10.816;2024-01-15T00:05:58;18.30;39.70
32753;DHT22;19121;52.428;10.816;2024-01-15T00:08:24;18.30;39.70
32753;DHT22;19121;52.428;10.816;2024-01-15T00:10:49;18.30;39.70
32753;DHT22;19121;52.428;10.816;2024-01-15T00:13:15;18.30;39.70
32753;DHT22;19121;52.428;10.816;2024-01-15T00:15:40;18.30;39.70
32753;DHT22;19121;52.428;10.816;2024-01-15T00:18:06;18.30;39.70
32753;DHT22;19121;52.428;10.816;2024-01-15T00:20:32;18.30;39.70
32753;DHT22;19121;52.428;10.816;2024-01-15T00:22:57;18.20;39.60
32753;DHT22;19121;52.428;10.816;2024-01-15T00:25:22;18.20;39.70
32753;DHT22;19121;52.428;10.816;2024-01-15T00:27:49;18.20;39.70
32753;DHT22;19121;52.428;10.816;2024-01-15T00:30:14;18.20;39.70
32753;DHT22;19121;52.428;10.816;2024-01-15T00:32:40;18.20;39.70
32753;DHT22;19121;52.428;10.816;2024-01-15T00:35:05;18.20;39.70
32753;DHT22;19121;52.428;10.816;2024-01-15T00:37:31;18.20;40.30
32753;DHT22;19121;52.428;10.816;2024-01-15T00:39:56;18.20;40.30
32753;DHT22;19121;52.428;10.816;2024-01-15T00:42:22;18.20;39.70
32753;DHT22;19121;52.428;10.816;2024-01-15T00:44:47;18.20;39.70
32753;DHT22;19121;52.428;10.816;2024-01-15T00:47:12;18.20;39.70
32753;DHT22;19121;52.428;10.816;2024-01-15T00:49:38;18.20;39.70
32753;DHT22;19121;52.428;10.816;2024-01-15T00:52:03;18.20;39.70
32753;DHT22;19121;52.428;10.816;2024-01-15T00:54:29;18.20;39.60
32753;DHT22;19121;52.428;10.816;2024-01-15T00:56:54;18.20;39.70
32753;DHT22;19121;52.428;10.816;2024-01-15T00:59:20;18.20;39.70
32753;DHT22;19121;52.428;10.816;2024-01-15T01:01:46;18.20;39.60
32753;DHT22;19121;52.428;10.816;2024-01-15T01:04:11;18.20;39.70
32753;DHT22;19121;52.428;10.816;2024-01-15T01:06:37;18.20;39.60
32753;DHT22;19121;52.428;10.816;2024-01-15T01:09:03;18.20;39.70
32753;DHT22;19121;52.428;10.816;2024-01-15T01:11:28;18.20;39.70
32753;DHT22;19121;52.428;10.816;2024-01-15T01:13:54;18.20;39.60
32753;DHT22;19121;52.428;10.816;2024-01-15T01:16:19;18.20;39.60
32753;DHT22;19121;52.428;10.816;2024-01-15T01:18:45;18.20;39.70
32753;DHT22;19121;52.428;10.816;2024-01-15T01:21:10;18.10;39.60
32753;DHT22;19121;52.428;10.816;2024-01-15T01:23:36;18.20;39.60
32753;DHT22;19121;52.428;10.816;2024-01-15T01:26:01;18.20;39.60
32753;DHT22;19121;52.428;10.816;2024-01-15T01:28:27;18.20;39.60
32753;DHT22;19121;52.428;10.816;2024-01-15T01:30:53;18.20;39.60
32753;DHT22;19121;52.428;10.816;2024-01-15T01:33:18;18.10;39.60
32753;DHT22;19121;52.428;10.816;2024-01-15T01:35:44;18.10;39.60
32753;DHT22;19121;52.428;10.816;2024-01-15T01:38:10;18.10;39.50
32753;DHT22;19121;52.428;10.816;2024-01-15T01:40:35;18.10;39.70
32753;DHT22;19121;52.428;10.816;2024-01-15T01:43:02;18.10;39.50
32753;DHT22;19121;52.428;10.816;2024-01-15T01:45:28;18.10;39.60
32753;DHT22;19121;52.428;10.816;2024-01-15T01:47:53;18.10;39.60
32753;DHT22;19121;52.428;10.816;2024-01-15T01:50:19;18.10;39.60
32753;DHT22;19121;52.428;10.816;2024-01-15T01:52:44;18.10;39.60
32753;DHT22;19121;52.428;10.816;2024-01-15T01:55:10;18.10;39.50
32753;DHT22;19121;52.428;10.816;2024-01-15T01:57:36;18.10;39.60
32753;DHT22;19121;52.428;10.816;2024-01-15T02:00:02;18.10;39.50
32753;DHT22;19121;52.428;10.816;2024-01-15T02:02:29;18.10;39.50
32753;DHT22;19121;52.428;10.816;2024-01-15T02:04:56;18.10;39.50
32753;DHT22;19121;52.428;10.816;2024-01-15T02:07:21;18.10;39.50
32753;DHT22;19121;52.428;10.816;2024-01-15T02:09:47;18.10;39.60
32753;DHT22;19121;52.428;10.816;2024-01-15T02:12:12;18.10;39.50
32753;DHT22;19121;52.428;10.816;2024-01-15T02:14:38;18.10;39.50
32753;DHT22;19121;52.428;10.816;2024-01-15T02:17:04;18.10;39.50
32753;DHT22;19121;52.428;10.816;2024-01-15T02:19:29;18.10;39.50
32753;DHT22;19121;52.428;10.816;2024-01-15T02:21:55;18.10;39.50
32753;DHT22;19121;52.428;10.816;2024-01-15T02:24:20;18.10;39.50
32753;DHT22;19121;52.428;10.816;2024-01-15T02:26:46;18.10;39.50
32753;DHT22;19121;52.428;10.816;2024-01-15T02:29:11;18.10;39.50
32753;DHT22;19121;52.428;10.816;2024-01-15T02:31:37;18.10;39.50
32753;DHT22;19121;52.428;10.816;2024-01-15T02:34:03;18.00;39.50
32753;DHT22;19121;52.428;10.816;2024-01-15T02:36:31;18.00;39.50
32753;DHT22;19121;52.428;10.816;2024-01-15T02:38:56;18.00;39.50
32753;DHT22;19121;52.428;10.816;2024-01-15T02:41:22;18.10;39.50
32753;DHT22;19121;52.428;10.816;2024-01-15T02:43:47;18.00;39.50
32753;DHT22;19121;52.428;10.816;2024-01-15T02:46:13;18.10;39.50
32753;DHT22;19121;52.428;10.816;2024-01-15T02:48:38;18.00;39.50
32753;DHT22;19121;52.428;10.816;2024-01-15T02:51:03;18.00;39.50
32753;DHT22;19121;52.428;10.816;2024-01-15T02:53:29;18.00;39.50
32753;DHT22;19121;52.428;10.816;2024-01-15T02:55:54;18.00;39.40
32753;DHT22;19121;52.428;10.816;2024-01-15T02:58:20;18.00;39.50
32753;DHT22;19121;52.428;10.816;2024-01-15T03:00:46;18.00;39.50
32753;DHT22;19121;52.428;10.816;2024-01-15T03:03:12;18.00;39.50
32753;DHT22;19121;52.428;10.816;2024-01-15T03:05:37;18.00;39.50
32753;DHT22;19121;52.428;10.816;2024-01-15T03:08:02;18.00;39.40
32753;DHT22;19121;52.428;10.816;2024-01-15T03:10:28;18.00;39.50
32753;DHT22;19121;52.428;10.816;2024-01-15T03:12:53;18.00;39.40
32753;DHT22;19121;52.428;10.816;2024-01-15T03:15:19;18.00;39.40
32753;DHT22;19121;52.428;10.816;2024-01-15T03:17:44;18.10;39.40
32753;DHT22;19121;52.428;10.816;2024-01-15T03:20:10;18.10;39.50
32753;DHT22;19121;52.428;10.816;2024-01-15T03:22:36;18.10;39.40
32753;DHT22;19121;52.428;10.816;2024-01-15T03:25:01;18.10;39.40
32753;DHT22;19121;52.428;10.816;2024-01-15T03:27:27;18.10;39.30
32753;DHT22;19121;52.428;10.816;2024-01-15T03:29:52;18.20;39.30
32753;DHT22;19121;52.428;10.816;2024-01-15T03:32:18;18.20;39.30
32753;DHT22;19121;52.428;10.816;2024-01-15T03:34:44;18.20;39.30
32753;DHT22;19121;52.428;10.816;2024-01-15T03:37:11;18.20;39.20
32753;DHT22;19121;52.428;10.816;2024-01-15T03:39:36;18.20;39.20
32753;DHT22;19121;52.428;10.816;2024-01-15T03:42:02;18.20;39.20
32753;DHT22;19121;52.428;10.816;2024-01-15T03:44:27;18.30;39.20
32753;DHT22;19121;52.428;10.816;2024-01-15T03:46:53;18.30;39.20
32753;DHT22;19121;52.428;10.816;2024-01-15T03:49:18;18.30;39.10
32753;DHT22;19121;52.428;10.816;2024-01-15T03:51:44;18.30;39.10
32753;DHT22;19121;52.428;10.816;2024-01-15T03:54:09;18.30;39.10
32753;DHT22;19121;52.428;10.816;2024-01-15T03:56:35;18.30;39.10
32753;DHT22;19121;52.428;10.816;2024-01-15T03:59:00;18.30;39.10
32753;DHT22;19121;52.428;10.816;2024-01-15T04:01:26;18.30;39.10
32753;DHT22;19121;52.428;10.816;2024-01-15T04:03:51;18.30;39.10
32753;DHT22;19121;52.428;10.816;2024-01-15T04:06:17;18.30;39.00
32753;DHT22;19121;52.428;10.816;2024-01-15T04:08:42;18.30;39.00
32753;DHT22;19121;52.428;10.816;2024-01-15T04:11:07;18.30;39.00
32753;DHT22;19121;52.428;10.816;2024-01-15T04:13:33;18.30;39.00
32753;DHT22;19121;52.428;10.816;2024-01-15T04:15:59;18.30;39.00
32753;DHT22;19121;52.428;10.816;2024-01-15T04:18:25;18.40;39.00
32753;DHT22;19121;52.428;10.816;2024-01-15T04:20:51;18.30;39.00
32753;DHT22;19121;52.428;10.816;2024-01-15T04:23:16;18.30;39.00
32753;DHT22;19121;52.428;10.816;2024-01-15T04:25:42;18.30;39.00
32753;DHT22;19121;52.428;10.816;2024-01-15T04:28:08;18.40;39.00
32753;DHT22;19121;52.428;10.816;2024-01-15T04:30:34;18.40;39.00
32753;DHT22;19121;52.428;10.816;2024-01-15T04:32:59;18.40;38.90
32753;DHT22;19121;52.428;10.816;2024-01-15T04:35:25;18.40;38.90
32753;DHT22;19121;52.428;10.816;2024-01-15T04:37:50;18.40;38.90
32753;DHT22;19121;52.428;10.816;2024-01-15T04:40:15;18.40;38.90
32753;DHT22;19121;52.428;10.816;2024-01-15T04:42:41;18.40;38.90
32753;DHT22;19121;52.428;10.816;2024-01-15T04:45:06;18.40;38.90
32753;DHT22;19121;52.428;10.816;2024-01-15T04:47:32;18.40;38.90
32753;DHT22;19121;52.428;10.816;2024-01-15T04:49:57;18.40;38.80
32753;DHT22;19121;52.428;10.816;2024-01-15T04:52:23;18.40;38.90
32753;DHT22;19121;52.428;10.816;2024-01-15T04:54:48;18.40;38.80
32753;DHT22;19121;52.428;10.816;2024-01-15T04:57:15;18.40;38.80
32753;DHT22;19121;52.428;10.816;2024-01-15T04:59:40;18.40;38.80
32753;DHT22;19121;52.428;10.816;2024-01-15T05:02:06;18.40;38.80
32753;DHT22;19121;52.428;10.816;2024-01-15T05:04:31;18.40;38.80
32753;DHT22;19121;52.428;10.816;2024-01-15T05:06:58;18.40;38.80
32753;DHT22;19121;52.428;10.816;2024-01-15T05:09:23;18.50;38.80
32753;DHT22;19121;52.428;10.816;2024-01-15T05:11:49;18.50;38.80
32753;DHT22;19121;52.428;10.816;2024-01-15T05:14:14;18.50;38.80
32753;DHT22;19121;52.428;10.816;2024-01-15T05:16:40;18.50;38.80
32753;DHT22;19121;52.428;10.816;2024-01-15T05:19:11;18.50;38.80
32753;DHT22;19121;52.428;10.816;2024-01-15T05:21:37;18.50;38.80
32753;DHT22;19121;52.428;10.816;2024-01-15T05:24:02;18.50;38.80
32753;DHT22;19121;52.428;10.816;2024-01-15T05:26:27;18.50;38.80
32753;DHT22;19121;52.428;10.816;2024-01-15T05:28:53;18.50;38.70
32753;DHT22;19121;52.428;10.816;2024-01-15T05:31:18;18.50;38.70
32753;DHT22;19121;52.428;10.816;2024-01-15T05:33:44;18.50;38.70
32753;DHT22;19121;52.428;10.816;2024-01-15T05:36:09;18.50;38.70
32753;DHT22;19121;52.428;10.816;2024-01-15T05:38:35;18.50;38.70
32753;DHT22;19121;52.428;10.816;2024-01-15T05:41:00;18.50;38.70
32753;DHT22;19121;52.428;10.816;2024-01-15T05:43:26;18.50;38.70
32753;DHT22;19121;52.428;10.816;2024-01-15T05:45:51;18.50;38.70
32753;DHT22;19121;52.428;10.816;2024-01-15T05:48:17;18.50;38.70
32753;DHT22;19121;52.428;10.816;2024-01-15T05:50:42;18.50;38.60
32753;DHT22;19121;52.428;10.816;2024-01-15T05:53:08;18.50;38.60
32753;DHT22;19121;52.428;10.816;2024-01-15T05:55:34;18.50;38.60
32753;DHT22;19121;52.428;10.816;2024-01-15T05:58:00;18.50;38.60
32753;DHT22;19121;52.428;10.816;2024-01-15T06:00:25;18.50;38.60
32753;DHT22;19121;52.428;10.816;2024-01-15T06:02:51;18.50;38.60
32753;DHT22;19121;52.428;10.816;2024-01-15T06:05:16;18.50;38.60
32753;DHT22;19121;52.428;10.816;2024-01-15T06:07:42;18.50;38.60
32753;DHT22;19121;52.428;10.816;2024-01-15T06:10:07;18.50;38.60
32753;DHT22;19121;52.428;10.816;2024-01-15T06:12:33;18.50;38.60
32753;DHT22;19121;52.428;10.816;2024-01-15T06:14:59;18.50;38.60
32753;DHT22;19121;52.428;10.816;2024-01-15T06:17:24;18.50;38.50
32753;DHT22;19121;52.428;10.816;2024-01-15T06:19:50;18.50;38.60
32753;DHT22;19121;52.428;10.816;2024-01-15T06:22:15;18.50;38.50
32753;DHT22;19121;52.428;10.816;2024-01-15T06:24:41;18.50;38.50
32753;DHT22;19121;52.428;10.816;2024-01-15T06:27:06;18.50;38.60
32753;DHT22;19121;52.428;10.816;2024-01-15T06:29:32;18.50;38.60
32753;DHT22;19121;52.428;10.816;2024-01-15T06:31:57;18.50;38.50
32753;DHT22;19121;52.428;10.816;2024-01-15T06:34:23;18.50;38.50
32753;DHT22;19121;52.428;10.816;2024-01-15T06:36:48;18.50;38.50
32753;DHT22;19121;52.428;10.816;2024-01-15T06:39:14;18.50;38.50
32753;DHT22;19121;52.428;10.816;2024-01-15T06:41:39;18.50;38.50
32753;DHT22;19121;52.428;10.816;2024-01-15T06:44:12;18.50;38.50
32753;DHT22;19121;52.428;10.816;2024-01-15T06:46:41;18.50;38.60
32753;DHT22;19121;52.428;10.816;2024-01-15T06:49:07;18.50;38.60
32753;DHT22;19121;52.428;10.816;2024-01-15T06:51:32;18.60;38.70
32753;DHT22;19121;52.428;10.816;2024-01-15T06:53:58;18.60;38.70
32753;DHT22;19121;52.428;10.816;2024-01-15T06:56:23;18.60;38.70
32753;DHT22;19121;52.428;10.816;2024-01-15T06:58:49;18.60;38.80
32753;DHT22;19121;52.428;10.816;2024-01-15T07:01:14;18.60;38.80
32753;DHT22;19121;52.428;10.816;2024-01-15T07:03:41;18.60;38.80
32753;DHT22;19121;52.428;10.816;2024-01-15T07:06:07;18.60;38.80
32753;DHT22;19121;52.428;10.816;2024-01-15T07:08:32;18.60;38.80
32753;DHT22;19121;52.428;10.816;2024-01-15T07:10:58;18.70;38.80
32753;DHT22;19121;52.428;10.816;2024-01-15T07:13:23;18.60;38.80
32753;DHT22;19121;52.428;10.816;2024-01-15T07:15:49;18.70;38.90
32753;DHT22;19121;52.428;10.816;2024-01-15T07:18:14;18.70;38.90
32753;DHT22;19121;52.428;10.816;2024-01-15T07:20:39;18.70;38.90
32753;DHT22;19121;52.428;10.816;2024-01-15T07:23:05;18.70;38.90
32753;DHT22;19121;52.428;10.816;2024-01-15T07:25:30;18.70;39.00
32753;DHT22;19121;52.428;10.816;2024-01-15T07:27:56;18.70;39.00
32753;DHT22;19121;52.428;10.816;2024-01-15T07:30:21;18.70;39.00
32753;DHT22;19121;52.428;10.816;2024-01-15T07:32:47;18.70;39.00
32753;DHT22;19121;52.428;10.816;2024-01-15T07:35:13;18.70;39.00
32753;DHT22;19121;52.428;10.816;2024-01-15T07:37:39;18.70;39.10
32753;DHT22;19121;52.428;10.816;2024-01-15T07:40:04;18.70;39.20
32753;DHT22;19121;52.428;10.816;2024-01-15T07:42:31;18.70;39.20
32753;DHT22;19121;52.428;10.816;2024-01-15T07:44:57;18.70;39.30
32753;DHT22;19121;52.428;10.816;2024-01-15T07:47:22;18.70;39.30
32753;DHT22;19121;52.428;10.816;2024-01-15T07:49:47;18.70;39.50
32753;DHT22;19121;52.428;10.816;2024-01-15T07:52:13;18.80;39.80
32753;DHT22;19121;52.428;10.816;2024-01-15T07:54:38;18.80;39.90
32753;DHT22;19121;52.428;10.816;2024-01-15T07:57:04;18.80;40.00
32753;DHT22;19121;52.428;10.816;2024-01-15T07:59:30;18.80;40.00
32753;DHT22;19121;52.428;10.816;2024-01-15T08:01:55;18.80;40.10
32753;DHT22;19121;52.428;10.816;2024-01-15T08:04:21;18.80;40.10
32753;DHT22;19121;52.428;10.816;2024-01-15T08:06:47;18.80;40.10
32753;DHT22;19121;52.428;10.816;2024-01-15T08:09:12;18.90;40.20
32753;DHT22;19121;52.428;10.816;2024-01-15T08:11:41;18.90;40.10
32753;DHT22;19121;52.428;10.816;2024-01-15T08:14:07;18.90;40.10
32753;DHT22;19121;52.428;10.816;2024-01-15T08:16:32;18.90;40.10
32753;DHT22;19121;52.428;10.816;2024-01-15T08:18:58;18.90;40.20
32753;DHT22;19121;52.428;10.816;2024-01-15T08:21:24;18.90;40.20
32753;DHT22;19121;52.428;10.816;2024-01-15T08:23:49;18.90;40.20
32753;DHT22;19121;52.428;10.816;2024-01-15T08:26:14;18.90;40.20
32753;DHT22;19121;52.428;10.816;2024-01-15T08:28:41;18.90;40.20
32753;DHT22;19121;52.428;10.816;2024-01-15T08:31:06;18.90;40.20
32753;DHT22;19121;52.428;10.816;2024-01-15T08:33:31;19.00;40.30
32753;DHT22;19121;52.428;10.816;2024-01-15T08:35:57;19.00;40.30
32753;DHT22;19121;52.428;10.816;2024-01-15T08:38:22;19.00;40.30
32753;DHT22;19121;52.428;10.816;2024-01-15T08:40:49;19.00;40.30
32753;DHT22;19121;52.428;10.816;2024-01-15T08:43:14;19.00;40.30
32753;DHT22;19121;52.428;10.816;2024-01-15T08:45:40;19.00;40.30
32753;DHT22;19121;52.428;10.816;2024-01-15T08:48:05;19.00;40.30
32753;DHT22;19121;52.428;10.816;2024-01-15T08:50:31;19.00;40.30
32753;DHT22;19121;52.428;10.816;2024-01-15T08:52:57;19.00;40.30
32753;DHT22;19121;52.428;10.816;2024-01-15T08:55:22;19.00;40.90
32753;DHT22;19121;52.428;10.816;2024-01-15T08:57:48;19.10;40.30
32753;DHT22;19121;52.428;10.816;2024-01-15T09:00:14;19.00;40.30
32753;DHT22;19121;52.428;10.816;2024-01-15T09:02:39;19.10;40.30
32753;DHT22;19121;52.428;10.816;2024-01-15T09:05:05;19.10;40.40
32753;DHT22;19121;52.428;10.816;2024-01-15T09:07:30;19.00;40.30
32753;DHT22;19121;52.428;10.816;2024-01-15T09:09:56;19.00;40.40
32753;DHT22;19121;52.428;10.816;2024-01-15T09:12:21;19.10;40.40
32753;DHT22;19121;52.428;10.816;2024-01-15T09:14:47;19.00;40.30
32753;DHT22;19121;52.428;10.816;2024-01-15T09:17:13;19.10;40.40
32753;DHT22;19121;52.428;10.816;2024-01-15T09:19:38;19.00;40.30
32753;DHT22;19121;52.428;10.816;2024-01-15T09:22:07;19.00;40.40
32753;DHT22;19121;52.428;10.816;2024-01-15T09:24:35;19.10;40.40
32753;DHT22;19121;52.428;10.816;2024-01-15T09:27:00;19.10;40.40
32753;DHT22;19121;52.428;10.816;2024-01-15T09:29:26;19.10;40.40
32753;DHT22;19121;52.428;10.816;2024-01-15T09:31:51;19.10;40.40
32753;DHT22;19121;52.428;10.816;2024-01-15T09:34:17;19.10;40.40
32753;DHT22;19121;52.428;10.816;2024-01-15T09:36:42;19.10;40.30
32753;DHT22;19121;52.428;10.816;2024-01-15T09:39:08;19.10;40.40
32753;DHT22;19121;52.428;10.816;2024-01-15T09:41:37;19.10;40.40
32753;DHT22;19121;52.428;10.816;2024-01-15T09:44:03;19.10;40.40
32753;DHT22;19121;52.428;10.816;2024-01-15T09:46:28;19.10;40.50
32753;DHT22;19121;52.428;10.816;2024-01-15T09:48:54;19.10;40.50
32753;DHT22;19121;52.428;10.816;2024-01-15T09:51:19;19.10;40.40
32753;DHT22;19121;52.428;10.816;2024-01-15T09:53:45;19.10;40.50
32753;DHT22;19121;52.428;10.816;2024-01-15T09:56:11;19.10;40.60
32753;DHT22;19121;52.428;10.816;2024-01-15T09:58:37;19.10;40.70
32753;DHT22;19121;52.428;10.816;2024-01-15T10:01:03;19.10;40.80
32753;DHT22;19121;52.428;10.816;2024-01-15T10:03:29;19.10;40.70
32753;DHT22;19121;52.428;10.816;2024-01-15T10:05:55;19.10;40.70
32753;DHT22;19121;52.428;10.816;2024-01-15T10:08:21;19.10;40.60
32753;DHT22;19121;52.428;10.816;2024-01-15T10:10:47;19.10;40.60
32753;DHT22;19121;52.428;10.816;2024-01-15T10:13:13;19.10;40.60
32753;DHT22;19121;52.428;10.816;2024-01-15T10:15:39;19.10;40.80
32753;DHT22;19121;52.428;10.816;2024-01-15T10:18:05;19.10;40.80
32753;DHT22;19121;52.428;10.816;2024-01-15T10:20:31;19.10;40.70
32753;DHT22;19121;52.428;10.816;2024-01-15T10:22:57;19.20;40.70
32753;DHT22;19121;52.428;10.816;2024-01-15T10:25:23;19.10;40.50
32753;DHT22;19121;52.428;10.816;2024-01-15T10:28:03;19.10;40.50
32753;DHT22;19121;52.428;10.816;2024-01-15T10:30:29;19.10;40.50
32753;DHT22;19121;52.428;10.816;2024-01-15T10:32:58;19.20;40.60
32753;DHT22;19121;52.428;10.816;2024-01-15T10:35:26;19.20;40.60
32753;DHT22;19121;52.428;10.816;2024-01-15T10:37:51;19.20;40.50
32753;DHT22;19121;52.428;10.816;2024-01-15T10:40:18;19.20;40.60
32753;DHT22;19121;52.428;10.816;2024-01-15T10:42:43;19.20;40.60
32753;DHT22;19121;52.428;10.816;2024-01-15T10:45:09;19.20;40.60
32753;DHT22;19121;52.428;10.816;2024-01-15T10:47:34;19.20;40.80
32753;DHT22;19121;52.428;10.816;2024-01-15T10:50:00;19.20;40.80
32753;DHT22;19121;52.428;10.816;2024-01-15T10:52:27;19.20;40.90
32753;DHT22;19121;52.428;10.816;2024-01-15T10:54:53;19.20;40.80
32753;DHT22;19121;52.428;10.816;2024-01-15T10:57:19;19.20;40.70
32753;DHT22;19121;52.428;10.816;2024-01-15T10:59:45;19.20;40.70
32753;DHT22;19121;52.428;10.816;2024-01-15T11:02:12;19.20;40.60
32753;DHT22;19121;52.428;10.816;2024-01-15T11:04:38;19.20;40.60
32753;DHT22;19121;52.428;10.816;2024-01-15T11:07:03;19.20;40.60
32753;DHT22;19121;52.428;10.816;2024-01-15T11:09:30;19.20;40.50
32753;DHT22;19121;52.428;10.816;2024-01-15T11:12:12;19.20;41.20
32753;DHT22;19121;52.428;10.816;2024-01-15T11:14:41;19.20;40.50
32753;DHT22;19121;52.428;10.816;2024-01-15T11:17:09;19.20;40.60
32753;DHT22;19121;52.428;10.816;2024-01-15T11:19:38;19.20;40.80
32753;DHT22;19121;52.428;10.816;2024-01-15T11:24:51;19.20;40.50
32753;DHT22;19121;52.428;10.816;2024-01-15T11:27:16;19.20;40.50
32753;DHT22;19121;52.428;10.816;2024-01-15T11:30:02;19.20;40.50
32753;DHT22;19121;52.428;10.816;2024-01-15T11:32:33;19.20;40.60
32753;DHT22;19121;52.428;10.816;2024-01-15T11:34:59;19.20;40.70
32753;DHT22;19121;52.428;10.816;2024-01-15T11:37:26;19.20;40.60
32753;DHT22;19121;52.428;10.816;2024-01-15T11:39:52;19.20;40.60
32753;DHT22;19121;52.428;10.816;2024-01-15T11:42:19;19.20;40.60
32753;DHT22;19121;52.428;10.816;2024-01-15T11:44:45;19.20;40.60
32753;DHT22;19121;52.428;10.816;2024-01-15T11:47:11;19.20;40.60
32753;DHT22;19121;52.428;10.816;2024-01-15T11:52:23;19.30;40.60
32753;DHT22;19121;52.428;10.816;2024-01-15T11:57:40;19.30;40.70
32753;DHT22;19121;52.428;10.816;2024-01-15T12:00:06;19.30;40.60
32753;DHT22;19121;52.428;10.816;2024-01-15T12:02:32;19.30;40.60
32753;DHT22;19121;52.428;10.816;2024-01-15T12:04:57;19.30;40.70
32753;DHT22;19121;52.428;10.816;2024-01-15T12:07:23;19.30;40.50
32753;DHT22;19121;52.428;10.816;2024-01-15T12:09:48;19.30;40.50
32753;DHT22;19121;52.428;10.816;2024-01-15T12:12:16;19.30;40.70
32753;DHT22;19121;52.428;10.816;2024-01-15T12:14:46;19.30;40.70
32753;DHT22;19121;52.428;10.816;2024-01-15T12:17:11;19.30;40.70
32753;DHT22;19121;52.428;10.816;2024-01-15T12:19:37;19.30;40.70
32753;DHT22;19121;52.428;10.816;2024-01-15T12:22:02;19.30;40.70
32753;DHT22;19121;52.428;10.816;2024-01-15T12:24:28;19.30;40.70
32753;DHT22;19121;52.428;10.816;2024-01-15T12:26:53;19.30;40.60
32753;DHT22;19121;52.428;10.816;2024-01-15T12:29:18;19.30;40.60
32753;DHT22;19121;52.428;10.816;2024-01-15T12:31:46;19.30;40.60
32753;DHT22;19121;52.428;10.816;2024-01-15T12:34:12;19.30;40.50
32753;DHT22;19121;52.428;10.816;2024-01-15T12:36:37;19.30;40.50
32753;DHT22;19121;52.428;10.816;2024-01-15T12:39:02;19.30;40.40
32753;DHT22;19121;52.428;10.816;2024-01-15T12:41:28;19.30;40.50
32753;DHT22;19121;52.428;10.816;2024-01-15T12:43:54;19.30;40.50
32753;DHT22;19121;52.428;10.816;2024-01-15T12:46:19;19.30;40.40
32753;DHT22;19121;52.428;10.816;2024-01-15T12:48:45;19.30;40.30
32753;DHT22;19121;52.428;10.816;2024-01-15T12:51:10;19.30;40.30
32753;DHT22;19121;52.428;10.816;2024-01-15T12:53:36;19.30;40.30
32753;DHT22;19121;52.428;10.816;2024-01-15T12:56:01;19.30;40.30
32753;DHT22;19121;52.428;10.816;2024-01-15T12:58:26;19.30;40.30
32753;DHT22;19121;52.428;10.816;2024-01-15T13:00:52;19.30;40.30
32753;DHT22;19121;52.428;10.816;2024-01-15T13:03:17;19.30;40.30
32753;DHT22;19121;52.428;10.816;2024-01-15T13:05:43;19.30;40.30
32753;DHT22;19121;52.428;10.816;2024-01-15T13:08:10;19.30;40.30
32753;DHT22;19121;52.428;10.816;2024-01-15T13:10:35;19.30;40.30
32753;DHT22;19121;52.428;10.816;2024-01-15T13:13:01;19.30;40.30
32753;DHT22;19121;52.428;10.816;2024-01-15T13:15:27;19.30;40.30
32753;DHT22;19121;52.428;10.816;2024-01-15T13:17:52;19.30;40.40
32753;DHT22;19121;52.428;10.816;2024-01-15T13:20:17;19.30;40.30
32753;DHT22;19121;52.428;10.816;2024-01-15T13:22:43;19.30;40.30
32753;DHT22;19121;52.428;10.816;2024-01-15T13:25:09;19.40;40.50
32753;DHT22;19121;52.428;10.816;2024-01-15T13:27:34;19.30;40.60
32753;DHT22;19121;52.428;10.816;2024-01-15T13:30:00;19.30;40.80
32753;DHT22;19121;52.428;10.816;2024-01-15T13:32:27;19.30;40.80
32753;DHT22;19121;52.428;10.816;2024-01-15T13:34:53;19.30;40.80
32753;DHT22;19121;52.428;10.816;2024-01-15T13:37:19;19.30;40.90
32753;DHT22;19121;52.428;10.816;2024-01-15T13:39:44;19.40;41.10
32753;DHT22;19121;52.428;10.816;2024-01-15T13:42:10;19.40;41.10
32753;DHT22;19121;52.428;10.816;2024-01-15T13:44:37;19.40;41.10
32753;DHT22;19121;52.428;10.816;2024-01-15T13:47:02;19.40;41.10
32753;DHT22;19121;52.428;10.816;2024-01-15T13:49:28;19.40;41.10
32753;DHT22;19121;52.428;10.816;2024-01-15T13:51:54;19.40;41.10
32753;DHT22;19121;52.428;10.816;2024-01-15T13:54:19;19.40;41.00
32753;DHT22;19121;52.428;10.816;2024-01-15T13:56:46;19.40;40.90
32753;DHT22;19121;52.428;10.816;2024-01-15T13:59:12;19.40;40.80
32753;DHT22;19121;52.428;10.816;2024-01-15T14:01:38;19.40;40.70
32753;DHT22;19121;52.428;10.816;2024-01-15T14:04:03;19.40;40.70
32753;DHT22;19121;52.428;10.816;2024-01-15T14:06:29;19.40;40.60
32753;DHT22;19121;52.428;10.816;2024-01-15T14:08:55;19.50;40.60
32753;DHT22;19121;52.428;10.816;2024-01-15T14:11:20;19.40;40.50
32753;DHT22;19121;52.428;10.816;2024-01-15T14:13:46;19.40;40.40
32753;DHT22;19121;52.428;10.816;2024-01-15T14:16:11;19.40;40.40
32753;DHT22;19121;52.428;10.816;2024-01-15T14:18:37;19.50;40.40
32753;DHT22;19121;52.428;10.816;2024-01-15T14:21:02;19.50;40.40
32753;DHT22;19121;52.428;10.816;2024-01-15T14:23:29;19.40;40.40
32753;DHT22;19121;52.428;10.816;2024-01-15T14:25:54;19.50;40.40
32753;DHT22;19121;52.428;10.816;2024-01-15T14:28:19;19.50;40.30
32753;DHT22;19121;52.428;10.816;2024-01-15T14:30:45;19.50;40.30
32753;DHT22;19121;52.428;10.816;2024-01-15T14:33:10;19.50;40.30
32753;DHT22;19121;52.428;10.816;2024-01-15T14:35:36;19.50;40.40
32753;DHT22;19121;52.428;10.816;2024-01-15T14:38:01;19.40;40.30
32753;DHT22;19121;52.428;10.816;2024-01-15T14:40:27;19.50;40.30
32753;DHT22;19121;52.428;10.816;2024-01-15T14:42:52;19.50;40.30
32753;DHT22;19121;52.428;10.816;2024-01-15T14:45:18;19.50;40.30
32753;DHT22;19121;52.428;10.816;2024-01-15T14:47:44;19.50;40.30
32753;DHT22;19121;52.428;10.816;2024-01-15T14:50:09;19.40;40.30
32753;DHT22;19121;52.428;10.816;2024-01-15T14:52:38;19.50;40.20
32753;DHT22;19121;52.428;10.816;2024-01-15T14:55:04;19.50;40.30
32753;DHT22;19121;52.428;10.816;2024-01-15T14:57:30;19.50;40.20
32753;DHT22;19121;52.428;10.816;2024-01-15T14:59:55;19.50;40.20
32753;DHT22;19121;52.428;10.816;2024-01-15T15:02:20;19.40;40.20
32753;DHT22;19121;52.428;10.816;2024-01-15T15:04:46;19.50;40.20
32753;DHT22;19121;52.428;10.816;2024-01-15T15:07:12;19.40;40.10
32753;DHT22;19121;52.428;10.816;2024-01-15T15:09:38;19.50;40.20
32753;DHT22;19121;52.428;10.816;2024-01-15T15:12:04;19.50;40.10
32753;DHT22;19121;52.428;10.816;2024-01-15T15:14:30;19.50;40.10